Newton Hook, New York
Current Conditions -  °F | °C
As of 3:54 PM on Sunday 23 Nov 2014 (Local Time) from KPSF Reporting Station
Overcast Overcast  
Wind Chill: 51°   Ceiling: 6000
Heat Index: 51°   Visibility: 10mi
Dew Point: 34°   Wind: 3mph
Humidity: 52%   Direction: 250°WSW
Pressure: 30.07"   Gusts: NA
Location:  42.3826°N, 73.7611°W
Report Text: KPSF 232054Z AUTO 25003KT 10SM BKN060 BKN100 OVC120 11/01 A3007 RMK AO2 SLP181 T01060011 55004
Loading
Personal Weather Stations






























Interactive Weather Map New forecast layout! Learn more

10-Day Weather Forecast

Advertisements
Track Severe Weather on mobile